sensor_id;sensor_type;location;lat;lon;timestamp;pressure;altitude;pressure_sealevel;temperature;humidity
26376;BME280;30544;42.196;24.336;2023-11-18T00:00:07;98234.75;;;11.67;85.89
26376;BME280;30544;42.196;24.336;2023-11-18T00:02:37;98241.41;;;11.66;86.07
26376;BME280;30544;42.196;24.336;2023-11-18T00:05:04;98239.47;;;11.67;85.67
26376;BME280;30544;42.196;24.336;2023-11-18T00:07:32;98240.56;;;11.71;85.49
26376;BME280;30544;42.196;24.336;2023-11-18T00:09:58;98244.19;;;11.71;85.42
26376;BME280;30544;42.196;24.336;2023-11-18T00:12:25;98245.56;;;11.74;85.85
26376;BME280;30544;42.196;24.336;2023-11-18T00:14:53;98224.47;;;11.78;85.57
26376;BME280;30544;42.196;24.336;2023-11-18T00:17:19;98218.09;;;11.78;85.79
26376;BME280;30544;42.196;24.336;2023-11-18T00:19:47;98218.66;;;11.80;85.27
26376;BME280;30544;42.196;24.336;2023-11-18T00:22:13;98217.00;;;11.84;85.71
26376;BME280;30544;42.196;24.336;2023-11-18T00:24:40;98213.34;;;11.88;85.02
26376;BME280;30544;42.196;24.336;2023-11-18T00:27:06;98224.47;;;11.88;85.29
26376;BME280;30544;42.196;24.336;2023-11-18T00:29:33;98225.88;;;11.96;84.31
26376;BME280;30544;42.196;24.336;2023-11-18T00:32:01;98229.72;;;12.05;83.98
26376;BME280;30544;42.196;24.336;2023-11-18T00:34:28;98225.25;;;12.09;82.56
26376;BME280;30544;42.196;24.336;2023-11-18T00:36:54;98226.66;;;12.17;81.57
26376;BME280;30544;42.196;24.336;2023-11-18T00:39:22;98244.41;;;12.31;80.85
26376;BME280;30544;42.196;24.336;2023-11-18T00:41:49;98238.00;;;12.35;79.93
26376;BME280;30544;42.196;24.336;2023-11-18T00:44:15;98245.78;;;12.33;78.46
26376;BME280;30544;42.196;24.336;2023-11-18T00:46:43;98252.47;;;12.27;75.50
26376;BME280;30544;42.196;24.336;2023-11-18T00:49:11;98245.50;;;12.35;74.51
26376;BME280;30544;42.196;24.336;2023-11-18T00:51:37;98246.59;;;12.39;72.42
26376;BME280;30544;42.196;24.336;2023-11-18T00:54:04;98249.94;;;12.46;71.33
26376;BME280;30544;42.196;24.336;2023-11-18T00:56:31;98224.03;;;12.51;71.46
26376;BME280;30544;42.196;24.336;2023-11-18T00:58:57;98242.94;;;12.54;71.63
26376;BME280;30544;42.196;24.336;2023-11-18T01:01:24;98253.78;;;12.60;71.91
26376;BME280;30544;42.196;24.336;2023-11-18T01:03:50;98259.03;;;12.57;72.05
26376;BME280;30544;42.196;24.336;2023-11-18T01:06:20;98266.88;;;12.50;70.90
26376;BME280;30544;42.196;24.336;2023-11-18T01:08:47;98263.28;;;12.44;70.14
26376;BME280;30544;42.196;24.336;2023-11-18T01:11:15;98264.69;;;12.37;68.63
26376;BME280;30544;42.196;24.336;2023-11-18T01:13:43;98265.25;;;12.33;67.61
26376;BME280;30544;42.196;24.336;2023-11-18T01:16:10;98267.75;;;12.30;67.24
26376;BME280;30544;42.196;24.336;2023-11-18T01:18:38;98264.69;;;12.37;67.73
26376;BME280;30544;42.196;24.336;2023-11-18T01:21:05;98260.78;;;12.38;68.16
26376;BME280;30544;42.196;24.336;2023-11-18T01:23:35;98265.53;;;12.32;67.80
26376;BME280;30544;42.196;24.336;2023-11-18T01:26:02;98264.44;;;12.28;68.07
26376;BME280;30544;42.196;24.336;2023-11-18T01:28:30;98270.25;;;12.31;67.94
26376;BME280;30544;42.196;24.336;2023-11-18T01:30:58;98263.28;;;12.34;68.43
26376;BME280;30544;42.196;24.336;2023-11-18T01:33:24;98277.78;;;12.21;68.43
26376;BME280;30544;42.196;24.336;2023-11-18T01:35:51;98276.69;;;12.07;69.04
26376;BME280;30544;42.196;24.336;2023-11-18T01:38:18;98261.41;;;12.04;69.09
26376;BME280;30544;42.196;24.336;2023-11-18T01:40:47;98282.53;;;12.10;69.17
26376;BME280;30544;42.196;24.336;2023-11-18T01:43:13;98281.44;;;12.01;69.33
26376;BME280;30544;42.196;24.336;2023-11-18T01:45:40;98294.22;;;11.87;68.92
26376;BME280;30544;42.196;24.336;2023-11-18T01:48:07;98285.31;;;11.85;69.19
26376;BME280;30544;42.196;24.336;2023-11-18T01:50:34;98295.34;;;11.81;69.50
26376;BME280;30544;42.196;24.336;2023-11-18T01:53:02;98284.75;;;11.67;69.08
26376;BME280;30544;42.196;24.336;2023-11-18T01:55:29;98293.63;;;11.64;68.81
26376;BME280;30544;42.196;24.336;2023-11-18T01:57:57;98287.19;;;11.38;68.70
26376;BME280;30544;42.196;24.336;2023-11-18T02:00:24;98284.47;;;11.43;68.38
26376;BME280;30544;42.196;24.336;2023-11-18T02:02:50;98280.84;;;11.43;68.99
26376;BME280;30544;42.196;24.336;2023-11-18T02:05:17;98285.84;;;11.46;68.54
26376;BME280;30544;42.196;24.336;2023-11-18T02:07:43;98290.81;;;11.39;68.34
26376;BME280;30544;42.196;24.336;2023-11-18T02:10:11;98286.97;;;11.45;68.75
26376;BME280;30544;42.196;24.336;2023-11-18T02:12:38;98287.47;;;11.37;69.42
26376;BME280;30544;42.196;24.336;2023-11-18T02:15:10;98284.72;;;11.32;68.85
26376;BME280;30544;42.196;24.336;2023-11-18T02:17:38;98293.31;;;11.35;69.35
26376;BME280;30544;42.196;24.336;2023-11-18T02:20:05;98282.44;;;11.24;69.01
26376;BME280;30544;42.196;24.336;2023-11-18T02:22:40;98286.84;;;11.04;69.45
26376;BME280;30544;42.196;24.336;2023-11-18T02:25:07;98280.22;;;11.10;69.41
26376;BME280;30544;42.196;24.336;2023-11-18T02:27:37;98288.56;;;11.10;69.27
26376;BME280;30544;42.196;24.336;2023-11-18T02:30:04;98283.28;;;11.09;69.98
26376;BME280;30544;42.196;24.336;2023-11-18T02:32:37;98278.47;;;10.89;69.37
26376;BME280;30544;42.196;24.336;2023-11-18T02:35:09;98296.78;;;10.90;69.10
26376;BME280;30544;42.196;24.336;2023-11-18T02:37:36;98296.84;;;11.00;69.42
26376;BME280;30544;42.196;24.336;2023-11-18T02:40:04;98300.44;;;11.06;68.32
26376;BME280;30544;42.196;24.336;2023-11-18T02:42:38;98307.94;;;11.05;68.32
26376;BME280;30544;42.196;24.336;2023-11-18T02:45:06;98315.41;;;10.95;68.23
26376;BME280;30544;42.196;24.336;2023-11-18T02:47:33;98315.97;;;11.02;67.86
26376;BME280;30544;42.196;24.336;2023-11-18T02:50:00;98312.94;;;11.03;67.33
26376;BME280;30544;42.196;24.336;2023-11-18T02:52:31;98309.03;;;10.94;67.03
26376;BME280;30544;42.196;24.336;2023-11-18T02:54:58;98301.25;;;10.96;67.39
26376;BME280;30544;42.196;24.336;2023-11-18T02:57:25;98289.00;;;10.77;67.59
26376;BME280;30544;42.196;24.336;2023-11-18T02:59:52;98286.47;;;10.70;67.66
26376;BME280;30544;42.196;24.336;2023-11-18T03:02:19;98294.53;;;10.77;67.59
26376;BME280;30544;42.196;24.336;2023-11-18T03:04:46;98298.66;;;10.74;67.27
26376;BME280;30544;42.196;24.336;2023-11-18T03:07:12;98297.88;;;10.79;67.01
26376;BME280;30544;42.196;24.336;2023-11-18T03:09:39;98308.09;;;10.73;67.05
26376;BME280;30544;42.196;24.336;2023-11-18T03:12:06;98316.97;;;10.70;66.29
26376;BME280;30544;42.196;24.336;2023-11-18T03:14:33;98313.63;;;10.73;67.45
26376;BME280;30544;42.196;24.336;2023-11-18T03:17:01;98324.44;;;10.65;67.35
26376;BME280;30544;42.196;24.336;2023-11-18T03:19:31;98305.59;;;10.67;67.14
26376;BME280;30544;42.196;24.336;2023-11-18T03:21:58;98302.25;;;10.65;67.64
26376;BME280;30544;42.196;24.336;2023-11-18T03:24:24;98305.50;;;10.57;66.50
26376;BME280;30544;42.196;24.336;2023-11-18T03:26:51;98306.50;;;10.35;67.47
26376;BME280;30544;42.196;24.336;2023-11-18T03:29:17;98299.66;;;10.48;66.95
26376;BME280;30544;42.196;24.336;2023-11-18T03:31:44;98294.09;;;10.43;66.61
26376;BME280;30544;42.196;24.336;2023-11-18T03:34:14;98312.41;;;10.44;66.12
26376;BME280;30544;42.196;24.336;2023-11-18T03:36:41;98300.16;;;10.35;66.01
26376;BME280;30544;42.196;24.336;2023-11-18T03:39:07;98303.19;;;10.38;65.89
26376;BME280;30544;42.196;24.336;2023-11-18T03:41:36;98294.13;;;10.48;66.06
26376;BME280;30544;42.196;24.336;2023-11-18T03:44:02;98301.34;;;10.49;65.68
26376;BME280;30544;42.196;24.336;2023-11-18T03:46:29;98298.81;;;10.42;65.93
26376;BME280;30544;42.196;24.336;2023-11-18T03:48:59;98291.09;;;10.54;65.41
26376;BME280;30544;42.196;24.336;2023-11-18T03:51:27;98294.97;;;10.48;64.75
26376;BME280;30544;42.196;24.336;2023-11-18T03:53:53;98293.00;;;10.44;64.50
26376;BME280;30544;42.196;24.336;2023-11-18T03:56:20;98304.38;;;10.47;64.12
26376;BME280;30544;42.196;24.336;2023-11-18T03:58:47;98298.22;;;10.40;64.24
26376;BME280;30544;42.196;24.336;2023-11-18T04:01:19;98318.41;;;10.26;63.24
26376;BME280;30544;42.196;24.336;2023-11-18T04:03:45;98311.00;;;10.41;63.83
26376;BME280;30544;42.196;24.336;2023-11-18T04:06:12;98327.03;;;10.34;64.11
26376;BME280;30544;42.196;24.336;2023-11-18T04:08:40;98334.22;;;10.35;64.13
26376;BME280;30544;42.196;24.336;2023-11-18T04:11:08;98323.09;;;10.25;63.78
26376;BME280;30544;42.196;24.336;2023-11-18T04:13:35;98320.63;;;10.29;63.03
26376;BME280;30544;42.196;24.336;2023-11-18T04:16:01;98320.56;;;10.23;63.35
26376;BME280;30544;42.196;24.336;2023-11-18T04:18:28;98337.53;;;10.27;63.70
26376;BME280;30544;42.196;24.336;2023-11-18T04:20:56;98328.94;;;10.29;63.90
26376;BME280;30544;42.196;24.336;2023-11-18T04:23:23;98329.66;;;10.19;63.36
26376;BME280;30544;42.196;24.336;2023-11-18T04:25:51;98347.25;;;9.98;62.71
26376;BME280;30544;42.196;24.336;2023-11-18T04:28:18;98354.19;;;10.00;63.01
26376;BME280;30544;42.196;24.336;2023-11-18T04:30:45;98356.50;;;10.13;62.87
26376;BME280;30544;42.196;24.336;2023-11-18T04:33:11;98348.88;;;9.93;62.90
26376;BME280;30544;42.196;24.336;2023-11-18T04:35:39;98352.28;;;10.06;62.34
26376;BME280;30544;42.196;24.336;2023-11-18T04:38:05;98337.56;;;10.00;62.63
26376;BME280;30544;42.196;24.336;2023-11-18T04:40:32;98339.22;;;10.01;62.48
26376;BME280;30544;42.196;24.336;2023-11-18T04:43:00;98330.22;;;9.84;62.36
26376;BME280;30544;42.196;24.336;2023-11-18T04:45:27;98343.06;;;9.63;61.89
26376;BME280;30544;42.196;24.336;2023-11-18T04:47:55;98336.75;;;9.73;62.84
26376;BME280;30544;42.196;24.336;2023-11-18T04:50:22;98346.50;;;9.75;62.18
26376;BME280;30544;42.196;24.336;2023-11-18T04:52:48;98334.91;;;9.78;61.80
26376;BME280;30544;42.196;24.336;2023-11-18T04:55:15;98356.81;;;9.85;60.93
26376;BME280;30544;42.196;24.336;2023-11-18T04:57:41;98343.19;;;9.78;60.05
26376;BME280;30544;42.196;24.336;2023-11-18T05:00:10;98358.63;;;9.69;60.95
26376;BME280;30544;42.196;24.336;2023-11-18T05:02:37;98356.97;;;9.73;60.13
26376;BME280;30544;42.196;24.336;2023-11-18T05:05:04;98357.25;;;9.72;60.68
26376;BME280;30544;42.196;24.336;2023-11-18T05:07:31;98346.97;;;9.67;59.67
26376;BME280;30544;42.196;24.336;2023-11-18T05:09:58;98355.38;;;9.77;59.70
26376;BME280;30544;42.196;24.336;2023-11-18T05:12:24;98367.56;;;9.76;60.38
26376;BME280;30544;42.196;24.336;2023-11-18T05:14:51;98372.84;;;9.78;59.51
26376;BME280;30544;42.196;24.336;2023-11-18T05:17:18;98379.19;;;9.78;59.64
26376;BME280;30544;42.196;24.336;2023-11-18T05:19:45;98374.53;;;9.84;59.71
26376;BME280;30544;42.196;24.336;2023-11-18T05:22:12;98373.41;;;9.80;59.93
26376;BME280;30544;42.196;24.336;2023-11-18T05:24:38;98372.16;;;9.65;60.81
26376;BME280;30544;42.196;24.336;2023-11-18T05:27:05;98372.94;;;9.61;59.74
26376;BME280;30544;42.196;24.336;2023-11-18T05:29:32;98370.09;;;9.56;60.00
26376;BME280;30544;42.196;24.336;2023-11-18T05:31:59;98369.75;;;9.47;59.45
26376;BME280;30544;42.196;24.336;2023-11-18T05:34:27;98406.44;;;9.38;59.79
26376;BME280;30544;42.196;24.336;2023-11-18T05:36:53;98380.53;;;9.22;60.10
26376;BME280;30544;42.196;24.336;2023-11-18T05:39:20;98372.78;;;8.97;59.74
26376;BME280;30544;42.196;24.336;2023-11-18T05:41:49;98371.63;;;8.93;59.55
26376;BME280;30544;42.196;24.336;2023-11-18T05:44:16;98378.16;;;8.87;58.75
26376;BME280;30544;42.196;24.336;2023-11-18T05:46:44;98378.00;;;8.93;58.02
26376;BME280;30544;42.196;24.336;2023-11-18T05:49:11;98397.72;;;9.02;57.77
26376;BME280;30544;42.196;24.336;2023-11-18T05:51:40;98387.38;;;9.14;57.98
26376;BME280;30544;42.196;24.336;2023-11-18T05:54:06;98399.06;;;9.21;57.49
26376;BME280;30544;42.196;24.336;2023-11-18T05:56:33;98397.13;;;9.22;57.68
26376;BME280;30544;42.196;24.336;2023-11-18T05:58:59;98402.09;;;9.20;57.74
26376;BME280;30544;42.196;24.336;2023-11-18T06:01:28;98409.88;;;9.23;57.07
26376;BME280;30544;42.196;24.336;2023-11-18T06:03:55;98396.03;;;9.23;56.08
26376;BME280;30544;42.196;24.336;2023-11-18T06:06:22;98404.59;;;9.21;56.20
26376;BME280;30544;42.196;24.336;2023-11-18T06:08:50;98411.75;;;9.17;56.01
26376;BME280;30544;42.196;24.336;2023-11-18T06:11:18;98433.31;;;9.15;55.78
26376;BME280;30544;42.196;24.336;2023-11-18T06:13:45;98456.00;;;9.39;55.70
26376;BME280;30544;42.196;24.336;2023-11-18T06:16:12;98459.59;;;9.40;55.87
26376;BME280;30544;42.196;24.336;2023-11-18T06:18:40;98464.19;;;9.29;55.40
26376;BME280;30544;42.196;24.336;2023-11-18T06:21:12;98452.22;;;9.45;55.17
26376;BME280;30544;42.196;24.336;2023-11-18T06:23:39;98454.41;;;9.43;55.40
26376;BME280;30544;42.196;24.336;2023-11-18T06:26:07;98435.78;;;9.39;55.48
26376;BME280;30544;42.196;24.336;2023-11-18T06:28:36;98442.38;;;9.32;55.03
26376;BME280;30544;42.196;24.336;2023-11-18T06:31:03;98439.28;;;9.29;54.26
26376;BME280;30544;42.196;24.336;2023-11-18T06:33:30;98451.97;;;9.25;55.19
26376;BME280;30544;42.196;24.336;2023-11-18T06:35:57;98458.53;;;9.41;54.74
26376;BME280;30544;42.196;24.336;2023-11-18T06:38:23;98457.69;;;9.18;54.44
26376;BME280;30544;42.196;24.336;2023-11-18T06:40:50;98465.09;;;9.34;54.32
26376;BME280;30544;42.196;24.336;2023-11-18T06:43:19;98462.91;;;9.37;53.27
26376;BME280;30544;42.196;24.336;2023-11-18T06:45:46;98453.31;;;9.44;52.66
26376;BME280;30544;42.196;24.336;2023-11-18T06:48:14;98444.94;;;9.39;52.98
26376;BME280;30544;42.196;24.336;2023-11-18T06:50:40;98463.16;;;9.35;52.74
26376;BME280;30544;42.196;24.336;2023-11-18T06:53:09;98459.56;;;9.34;52.00
26376;BME280;30544;42.196;24.336;2023-11-18T06:55:36;98477.00;;;9.35;52.82
26376;BME280;30544;42.196;24.336;2023-11-18T06:58:03;98465.53;;;9.48;52.22
26376;BME280;30544;42.196;24.336;2023-11-18T07:00:31;98464.88;;;9.63;51.30
26376;BME280;30544;42.196;24.336;2023-11-18T07:02:57;98465.28;;;9.50;52.06
26376;BME280;30544;42.196;24.336;2023-11-18T07:05:25;98464.03;;;9.62;50.95
26376;BME280;30544;42.196;24.336;2023-11-18T07:07:51;98467.44;;;9.70;51.12
26376;BME280;30544;42.196;24.336;2023-11-18T07:10:18;98465.31;;;9.77;50.96
26376;BME280;30544;42.196;24.336;2023-11-18T07:12:46;98462.56;;;9.55;50.34
26376;BME280;30544;42.196;24.336;2023-11-18T07:15:13;98455.59;;;9.74;49.87
26376;BME280;30544;42.196;24.336;2023-11-18T07:17:41;98421.91;;;9.87;49.39
26376;BME280;30544;42.196;24.336;2023-11-18T07:20:07;98435.00;;;9.92;49.14
26376;BME280;30544;42.196;24.336;2023-11-18T07:22:36;98428.66;;;9.70;49.95
26376;BME280;30544;42.196;24.336;2023-11-18T07:25:04;98436.41;;;9.68;49.36
26376;BME280;30544;42.196;24.336;2023-11-18T07:27:33;98430.16;;;9.77;49.94
26376;BME280;30544;42.196;24.336;2023-11-18T07:30:00;98417.66;;;9.75;49.62
26376;BME280;30544;42.196;24.336;2023-11-18T07:32:26;98413.19;;;9.74;49.78
26376;BME280;30544;42.196;24.336;2023-11-18T07:34:55;98416.13;;;9.89;49.37
26376;BME280;30544;42.196;24.336;2023-11-18T07:37:21;98423.28;;;9.85;48.99
26376;BME280;30544;42.196;24.336;2023-11-18T07:39:48;98444.72;;;9.94;48.53
26376;BME280;30544;42.196;24.336;2023-11-18T07:42:15;98415.25;;;9.83;48.59
26376;BME280;30544;42.196;24.336;2023-11-18T07:44:43;98410.75;;;9.77;49.10
26376;BME280;30544;42.196;24.336;2023-11-18T07:47:09;98419.09;;;10.09;47.60
26376;BME280;30544;42.196;24.336;2023-11-18T07:49:36;98415.41;;;10.04;48.23
26376;BME280;30544;42.196;24.336;2023-11-18T07:52:04;98410.50;;;10.11;48.12
26376;BME280;30544;42.196;24.336;2023-11-18T07:54:31;98401.31;;;10.05;48.25
26376;BME280;30544;42.196;24.336;2023-11-18T07:56:58;98396.72;;;9.89;48.15
26376;BME280;30544;42.196;24.336;2023-11-18T07:59:25;98427.16;;;10.11;48.47
26376;BME280;30544;42.196;24.336;2023-11-18T08:01:52;98402.63;;;9.98;47.01
26376;BME280;30544;42.196;24.336;2023-11-18T08:04:19;98404.38;;;9.77;47.44
26376;BME280;30544;42.196;24.336;2023-11-18T08:06:47;98415.78;;;9.80;47.67
26376;BME280;30544;42.196;24.336;2023-11-18T08:09:14;98419.78;;;9.94;47.47
26376;BME280;30544;42.196;24.336;2023-11-18T08:11:47;98394.50;;;10.18;47.70
26376;BME280;30544;42.196;24.336;2023-11-18T08:14:14;98399.69;;;10.09;47.33
26376;BME280;30544;42.196;24.336;2023-11-18T08:16:41;98408.00;;;10.09;47.93
26376;BME280;30544;42.196;24.336;2023-11-18T08:19:08;98401.69;;;10.19;46.98
26376;BME280;30544;42.196;24.336;2023-11-18T08:21:34;98467.50;;;10.29;47.80
26376;BME280;30544;42.196;24.336;2023-11-18T08:24:03;98402.53;;;10.19;47.80
26376;BME280;30544;42.196;24.336;2023-11-18T08:26:31;98404.03;;;10.27;47.20
26376;BME280;30544;42.196;24.336;2023-11-18T08:28:57;98436.56;;;10.10;47.08
26376;BME280;30544;42.196;24.336;2023-11-18T08:31:24;98409.16;;;10.45;47.73
26376;BME280;30544;42.196;24.336;2023-11-18T08:33:50;98421.97;;;10.57;46.58
26376;BME280;30544;42.196;24.336;2023-11-18T08:36:19;98422.84;;;10.62;46.95
26376;BME280;30544;42.196;24.336;2023-11-18T08:38:47;98427.44;;;10.89;46.75
26376;BME280;30544;42.196;24.336;2023-11-18T08:41:14;98429.84;;;10.75;46.41
26376;BME280;30544;42.196;24.336;2023-11-18T08:43:42;98456.72;;;10.69;47.15
26376;BME280;30544;42.196;24.336;2023-11-18T08:46:12;98436.66;;;10.57;46.69
26376;BME280;30544;42.196;24.336;2023-11-18T08:48:39;98446.19;;;10.71;46.26
26376;BME280;30544;42.196;24.336;2023-11-18T08:51:06;98461.72;;;10.72;45.90
26376;BME280;30544;42.196;24.336;2023-11-18T08:53:33;98457.81;;;10.63;46.63
26376;BME280;30544;42.196;24.336;2023-11-18T08:56:06;98449.75;;;10.62;47.10
26376;BME280;30544;42.196;24.336;2023-11-18T08:58:38;98422.16;;;10.87;45.81
26376;BME280;30544;42.196;24.336;2023-11-18T09:01:06;98447.09;;;10.82;46.43
26376;BME280;30544;42.196;24.336;2023-11-18T09:03:38;98459.50;;;11.17;45.95
26376;BME280;30544;42.196;24.336;2023-11-18T09:06:08;98422.22;;;10.92;46.32
26376;BME280;30544;42.196;24.336;2023-11-18T09:08:42;98436.41;;;11.01;45.74
26376;BME280;30544;42.196;24.336;2023-11-18T09:11:09;98420.66;;;11.22;46.21
26376;BME280;30544;42.196;24.336;2023-11-18T09:13:38;98421.94;;;11.61;45.12
26376;BME280;30544;42.196;24.336;2023-11-18T09:16:06;98407.50;;;11.59;44.57
26376;BME280;30544;42.196;24.336;2023-11-18T09:18:34;98404.34;;;11.30;44.33
26376;BME280;30544;42.196;24.336;2023-11-18T09:21:01;98401.13;;;11.64;44.73
26376;BME280;30544;42.196;24.336;2023-11-18T09:23:29;98381.66;;;11.69;44.62
26376;BME280;30544;42.196;24.336;2023-11-18T09:25:57;98414.44;;;11.72;44.16
26376;BME280;30544;42.196;24.336;2023-11-18T09:28:24;98390.28;;;11.62;43.67
26376;BME280;30544;42.196;24.336;2023-11-18T09:30:53;98390.19;;;11.32;44.21
26376;BME280;30544;42.196;24.336;2023-11-18T09:33:24;98373.34;;;11.69;44.11
26376;BME280;30544;42.196;24.336;2023-11-18T09:35:57;98371.75;;;11.93;45.06
26376;BME280;30544;42.196;24.336;2023-11-18T09:38:28;98380.91;;;11.89;45.16
26376;BME280;30544;42.196;24.336;2023-11-18T09:40:54;98376.75;;;11.96;44.91
26376;BME280;30544;42.196;24.336;2023-11-18T09:43:22;98375.91;;;11.96;43.73
26376;BME280;30544;42.196;24.336;2023-11-18T09:45:49;98369.78;;;11.89;44.02
26376;BME280;30544;42.196;24.336;2023-11-18T09:48:18;98382.50;;;11.64;45.11
26376;BME280;30544;42.196;24.336;2023-11-18T09:50:51;98379.69;;;11.54;44.22
26376;BME280;30544;42.196;24.336;2023-11-18T09:53:18;98366.41;;;11.71;44.52
26376;BME280;30544;42.196;24.336;2023-11-18T09:55:49;98359.81;;;11.93;44.90
26376;BME280;30544;42.196;24.336;2023-11-18T09:58:20;98365.34;;;12.13;44.72
26376;BME280;30544;42.196;24.336;2023-11-18T10:00:50;98378.41;;;12.13;44.25
26376;BME280;30544;42.196;24.336;2023-11-18T10:03:17;98364.72;;;11.70;44.55
26376;BME280;30544;42.196;24.336;2023-11-18T10:05:43;98375.09;;;11.95;45.32
26376;BME280;30544;42.196;24.336;2023-11-18T10:08:12;98373.13;;;12.16;45.05
26376;BME280;30544;42.196;24.336;2023-11-18T10:10:41;98382.28;;;12.07;45.09
26376;BME280;30544;42.196;24.336;2023-11-18T10:13:10;98382.03;;;11.93;44.57
26376;BME280;30544;42.196;24.336;2023-11-18T10:15:46;98400.28;;;11.73;44.36
26376;BME280;30544;42.196;24.336;2023-11-18T10:18:17;98389.22;;;11.89;45.13
26376;BME280;30544;42.196;24.336;2023-11-18T10:20:48;98387.56;;;12.03;44.69
26376;BME280;30544;42.196;24.336;2023-11-18T10:23:18;98395.34;;;12.01;44.83
26376;BME280;30544;42.196;24.336;2023-11-18T10:25:46;98387.56;;;12.08;44.90
26376;BME280;30544;42.196;24.336;2023-11-18T10:28:23;98395.28;;;11.60;45.17
26376;BME280;30544;42.196;24.336;2023-11-18T10:30:52;98403.34;;;11.62;43.63
26376;BME280;30544;42.196;24.336;2023-11-18T10:33:19;98407.72;;;10.80;43.75
26376;BME280;30544;42.196;24.336;2023-11-18T10:35:50;98406.34;;;10.82;44.46
26376;BME280;30544;42.196;24.336;2023-11-18T10:38:22;98398.47;;;10.64;44.76
26376;BME280;30544;42.196;24.336;2023-11-18T10:40:52;98398.84;;;10.78;44.20
26376;BME280;30544;42.196;24.336;2023-11-18T10:43:20;98413.22;;;10.33;45.63
26376;BME280;30544;42.196;24.336;2023-11-18T10:45:49;98399.34;;;10.01;44.39
26376;BME280;30544;42.196;24.336;2023-11-18T10:48:16;98394.09;;;10.31;45.31
26376;BME280;30544;42.196;24.336;2023-11-18T10:50:45;98397.81;;;10.52;45.23
26376;BME280;30544;42.196;24.336;2023-11-18T10:53:11;98398.53;;;10.37;45.28
26376;BME280;30544;42.196;24.336;2023-11-18T10:55:42;98399.88;;;10.30;44.92
26376;BME280;30544;42.196;24.336;2023-11-18T10:58:09;98406.25;;;10.72;44.59
26376;BME280;30544;42.196;24.336;2023-11-18T11:00:48;98401.88;;;10.39;45.82
26376;BME280;30544;42.196;24.336;2023-11-18T11:03:16;98406.94;;;10.47;44.30
26376;BME280;30544;42.196;24.336;2023-11-18T11:05:43;98413.03;;;10.44;44.51
26376;BME280;30544;42.196;24.336;2023-11-18T11:08:11;98396.50;;;10.60;44.80
26376;BME280;30544;42.196;24.336;2023-11-18T11:10:40;98396.56;;;10.75;44.26
26376;BME280;30544;42.196;24.336;2023-11-18T11:13:09;98398.00;;;10.77;43.82
26376;BME280;30544;42.196;24.336;2023-11-18T11:15:40;98382.31;;;10.56;44.29
26376;BME280;30544;42.196;24.336;2023-11-18T11:18:08;98377.88;;;10.55;43.92
26376;BME280;30544;42.196;24.336;2023-11-18T11:20:41;98403.19;;;10.69;43.79
26376;BME280;30544;42.196;24.336;2023-11-18T11:23:11;98389.69;;;10.77;43.76
26376;BME280;30544;42.196;24.336;2023-11-18T11:25:45;98399.19;;;10.97;44.33
26376;BME280;30544;42.196;24.336;2023-11-18T11:28:16;98382.47;;;10.81;43.74
26376;BME280;30544;42.196;24.336;2023-11-18T11:30:46;98399.75;;;10.94;44.31
26376;BME280;30544;42.196;24.336;2023-11-18T11:33:14;98391.34;;;10.36;44.18
26376;BME280;30544;42.196;24.336;2023-11-18T11:35:46;98387.59;;;10.58;44.18
26376;BME280;30544;42.196;24.336;2023-11-18T11:38:14;98385.75;;;10.73;43.83
26376;BME280;30544;42.196;24.336;2023-11-18T11:40:43;98392.56;;;10.50;43.92
26376;BME280;30544;42.196;24.336;2023-11-18T11:43:11;98381.25;;;10.62;44.23
26376;BME280;30544;42.196;24.336;2023-11-18T11:45:42;98387.28;;;10.49;44.57
26376;BME280;30544;42.196;24.336;2023-11-18T11:48:12;98401.97;;;10.49;44.32
26376;BME280;30544;42.196;24.336;2023-11-18T11:51:02;98381.16;;;10.47;44.38
26376;BME280;30544;42.196;24.336;2023-11-18T11:53:30;98374.13;;;10.34;44.37
26376;BME280;30544;42.196;24.336;2023-11-18T11:55:58;98383.75;;;10.21;44.53
26376;BME280;30544;42.196;24.336;2023-11-18T11:58:31;98393.13;;;10.58;44.57
26376;BME280;30544;42.196;24.336;2023-11-18T12:01:01;98390.38;;;10.58;44.37
26376;BME280;30544;42.196;24.336;2023-11-18T12:03:32;98414.25;;;10.59;43.67
26376;BME280;30544;42.196;24.336;2023-11-18T12:06:01;98388.44;;;10.21;43.50
26376;BME280;30544;42.196;24.336;2023-11-18T12:08:34;98389.75;;;10.45;44.41
26376;BME280;30544;42.196;24.336;2023-11-18T12:11:02;98401.00;;;10.71;43.33
26376;BME280;30544;42.196;24.336;2023-11-18T12:13:28;98411.50;;;10.64;43.62
26376;BME280;30544;42.196;24.336;2023-11-18T12:15:59;98397.81;;;10.99;43.51
26376;BME280;30544;42.196;24.336;2023-11-18T12:18:30;98400.63;;;10.57;44.26
26376;BME280;30544;42.196;24.336;2023-11-18T12:20:59;98408.34;;;10.50;44.56
26376;BME280;30544;42.196;24.336;2023-11-18T12:23:28;98401.22;;;10.59;43.81
26376;BME280;30544;42.196;24.336;2023-11-18T12:25:55;98400.88;;;10.50;43.72
26376;BME280;30544;42.196;24.336;2023-11-18T12:28:24;98401.72;;;10.56;44.00
26376;BME280;30544;42.196;24.336;2023-11-18T12:30:52;98403.28;;;10.84;43.86
26376;BME280;30544;42.196;24.336;2023-11-18T12:33:21;98423.22;;;10.76;44.23
26376;BME280;30544;42.196;24.336;2023-11-18T12:38:54;98404.72;;;10.44;43.41
26376;BME280;30544;42.196;24.336;2023-11-18T12:41:33;98400.44;;;11.26;42.66
26376;BME280;30544;42.196;24.336;2023-11-18T12:44:06;98404.09;;;11.42;42.68
26376;BME280;30544;42.196;24.336;2023-11-18T12:46:48;98393.47;;;11.19;42.70
26376;BME280;30544;42.196;24.336;2023-11-18T12:49:22;98411.28;;;11.33;42.20
26376;BME280;30544;42.196;24.336;2023-11-18T12:51:49;98407.81;;;10.95;41.95
26376;BME280;30544;42.196;24.336;2023-11-18T12:54:19;98417.31;;;11.14;41.97
26376;BME280;30544;42.196;24.336;2023-11-18T12:56:45;98402.97;;;10.75;43.28
26376;BME280;30544;42.196;24.336;2023-11-18T12:59:14;98401.72;;;11.03;42.74